createdAt,value
2022-09-10T00:02:01.954Z,0.98
2022-09-10T00:04:28.919Z,1.20
2022-09-10T00:06:56.454Z,1.55
2022-09-10T00:09:23.842Z,1.33
2022-09-10T00:11:50.831Z,1.23
2022-09-10T00:14:21.916Z,1.50
2022-09-10T00:16:49.350Z,2.20
2022-09-10T00:19:16.656Z,1.15
2022-09-10T00:21:44.514Z,1.45
2022-09-10T00:24:12.054Z,1.60
2022-09-10T00:26:39.837Z,1.40
2022-09-10T00:29:11.807Z,1.50
2022-09-10T00:31:39.851Z,1.20
2022-09-10T00:34:07.453Z,1.13
2022-09-10T00:36:39.681Z,1.52
2022-09-10T00:39:13.672Z,1.38
2022-09-10T00:41:44.382Z,1.10
2022-09-10T00:44:42.120Z,1.55
2022-09-10T00:47:26.661Z,1.27
2022-09-10T00:50:15.550Z,1.20
2022-09-10T00:55:12.020Z,1.10
2022-09-10T00:57:39.921Z,1.50
2022-09-10T01:00:10.421Z,1.10
2022-09-10T01:02:37.374Z,1.20
2022-09-10T01:05:06.118Z,1.40
2022-09-10T01:07:33.872Z,1.63
2022-09-10T01:10:06.515Z,1.70
2022-09-10T01:12:57.318Z,1.60
2022-09-10T01:15:56.076Z,1.77
2022-09-10T01:21:17.796Z,1.20
2022-09-10T01:24:12.869Z,1.40
2022-09-10T01:26:49.421Z,1.50
2022-09-10T01:29:16.357Z,1.35
2022-09-10T01:32:06.974Z,1.35
2022-09-10T01:34:42.515Z,1.20
2022-09-10T01:37:18.133Z,1.48
2022-09-10T01:39:47.413Z,1.17
2022-09-10T01:42:15.410Z,1.25
2022-09-10T01:44:47.372Z,1.20
2022-09-10T01:47:26.393Z,1.65
2022-09-10T01:50:11.508Z,1.25
2022-09-10T01:53:07.477Z,1.05
2022-09-10T01:55:47.002Z,1.40
2022-09-10T01:58:23.792Z,1.10
2022-09-10T02:01:20.301Z,1.20
2022-09-10T02:03:51.861Z,1.20
2022-09-10T02:06:23.117Z,0.90
2022-09-10T02:08:53.553Z,1.13
2022-09-10T02:11:21.490Z,1.10
2022-09-10T02:13:48.672Z,0.90
2022-09-10T02:16:24.049Z,1.10
2022-09-10T02:18:51.110Z,1.33
2022-09-10T02:21:18.413Z,1.10
2022-09-10T02:23:53.915Z,1.38
2022-09-10T02:26:20.839Z,1.10
2022-09-10T02:28:49.778Z,1.35
2022-09-10T02:33:45.665Z,1.10
2022-09-10T02:36:12.484Z,1.13
2022-09-10T02:38:39.496Z,1.30
2022-09-10T02:41:06.690Z,1.25
2022-09-10T02:43:38.277Z,1.10
2022-09-10T02:46:08.540Z,1.48
2022-09-10T02:48:35.436Z,1.63
2022-09-10T02:51:02.895Z,1.50
2022-09-10T02:53:31.703Z,1.13
2022-09-10T02:55:58.699Z,1.20
2022-09-10T02:58:25.527Z,1.20
2022-09-10T03:00:52.514Z,1.60
2022-09-10T03:03:19.595Z,1.10
2022-09-10T03:05:47.472Z,1.35
2022-09-10T03:08:14.389Z,1.40
2022-09-10T03:10:41.318Z,1.10
2022-09-10T03:13:08.217Z,1.42
2022-09-10T03:15:35.208Z,1.30
2022-09-10T03:18:02.142Z,1.55
2022-09-10T03:20:29.066Z,1.30
2022-09-10T03:22:55.959Z,1.20
2022-09-10T03:25:22.902Z,1.40
2022-09-10T03:27:49.872Z,1.30
2022-09-10T03:30:16.853Z,1.17
2022-09-10T03:32:44.330Z,1.27
2022-09-10T03:35:11.361Z,1.50
2022-09-10T03:37:38.265Z,1.20
2022-09-10T03:40:06.891Z,1.38
2022-09-10T03:42:33.836Z,1.52
2022-09-10T03:45:00.695Z,1.40
2022-09-10T03:47:27.549Z,1.45
2022-09-10T03:49:55.179Z,1.33
2022-09-10T03:52:22.899Z,1.40
2022-09-10T03:54:51.174Z,1.73
2022-09-10T03:57:18.287Z,1.40
2022-09-10T03:59:46.146Z,1.50
2022-09-10T04:02:13.332Z,1.95
2022-09-10T04:04:41.023Z,1.60
2022-09-10T04:07:08.170Z,1.67
2022-09-10T04:09:35.066Z,2.00
2022-09-10T04:12:03.754Z,1.55
2022-09-10T04:14:31.189Z,1.40
2022-09-10T04:16:59.013Z,1.55
2022-09-10T04:19:27.626Z,1.63
2022-09-10T04:21:54.748Z,1.40
2022-09-10T04:24:21.626Z,1.55
2022-09-10T04:26:48.578Z,1.58
2022-09-10T04:29:15.431Z,1.52
2022-09-10T04:31:42.421Z,1.83
2022-09-10T04:34:09.301Z,1.75
2022-09-10T04:36:36.128Z,1.50
2022-09-10T04:39:03.192Z,1.30
2022-09-10T04:41:30.175Z,1.50
2022-09-10T04:43:57.106Z,1.45
2022-09-10T04:46:24.060Z,1.77
2022-09-10T04:48:52.056Z,1.60
2022-09-10T04:51:18.951Z,1.42
2022-09-10T04:53:46.239Z,1.65
2022-09-10T04:56:13.611Z,1.38
2022-09-10T04:58:41.357Z,1.40
2022-09-10T05:01:08.925Z,1.55
2022-09-10T05:03:36.119Z,1.27
2022-09-10T05:06:03.777Z,1.17
2022-09-10T05:08:31.128Z,1.23
2022-09-10T05:10:58.888Z,1.00
2022-09-10T05:13:25.733Z,1.08
2022-09-10T05:15:52.559Z,1.65
2022-09-10T05:18:19.420Z,1.20
2022-09-10T05:20:46.241Z,1.30
2022-09-10T05:23:13.186Z,1.38
2022-09-10T05:25:40.116Z,1.52
2022-09-10T05:28:06.982Z,1.40
2022-09-10T05:30:33.797Z,1.33
2022-09-10T05:33:01.482Z,1.10
2022-09-10T05:35:29.172Z,1.17
2022-09-10T05:38:01.074Z,1.50
2022-09-10T05:40:29.306Z,1.30
2022-09-10T05:42:56.270Z,1.38
2022-09-10T05:45:23.667Z,1.35
2022-09-10T05:47:51.466Z,1.00
2022-09-10T05:50:18.752Z,1.40
2022-09-10T05:52:45.912Z,1.40
2022-09-10T05:55:12.818Z,1.88
2022-09-10T05:57:42.398Z,1.70
2022-09-10T06:00:09.816Z,2.90
2022-09-10T06:02:37.297Z,2.90
2022-09-10T06:05:04.550Z,3.50
2022-09-10T06:07:31.951Z,2.60
2022-09-10T06:10:00.208Z,2.72
2022-09-10T06:12:27.594Z,2.15
2022-09-10T06:14:54.555Z,2.00
2022-09-10T06:17:21.438Z,1.90
2022-09-10T06:19:48.362Z,1.98
2022-09-10T06:22:15.217Z,1.77
2022-09-10T06:24:42.334Z,1.58
2022-09-10T06:27:09.826Z,1.80
2022-09-10T06:29:36.856Z,1.77
2022-09-10T06:32:04.216Z,1.75
2022-09-10T06:34:31.481Z,1.55
2022-09-10T06:36:58.531Z,1.40
2022-09-10T06:39:25.499Z,1.55
2022-09-10T06:41:53.734Z,1.13
2022-09-10T06:44:22.543Z,1.40
2022-09-10T06:49:36.748Z,1.60
2022-09-10T06:52:03.766Z,1.42
2022-09-10T06:54:30.626Z,1.65
2022-09-10T06:56:58.240Z,1.67
2022-09-10T06:59:25.213Z,1.50
2022-09-10T07:01:52.222Z,1.65
2022-09-10T07:04:19.119Z,1.30
2022-09-10T07:06:47.707Z,1.42
2022-09-10T07:09:14.973Z,1.42
2022-09-10T07:11:42.084Z,1.33
2022-09-10T07:14:14.034Z,1.60
2022-09-10T07:16:44.701Z,1.50
2022-09-10T07:19:15.300Z,1.55
2022-09-10T07:21:42.219Z,1.45
2022-09-10T07:24:12.522Z,1.30
2022-09-10T07:26:39.451Z,1.40
2022-09-10T07:29:06.730Z,1.30
2022-09-10T07:31:35.437Z,1.25
2022-09-10T07:34:03.260Z,1.35
2022-09-10T07:36:30.641Z,1.20
2022-09-10T07:38:59.040Z,1.25
2022-09-10T07:41:29.754Z,1.30
2022-09-10T07:43:57.125Z,1.40
2022-09-10T07:46:25.694Z,1.30
2022-09-10T07:48:58.634Z,1.40
2022-09-10T07:51:27.835Z,1.63
2022-09-10T07:53:59.316Z,1.55
2022-09-10T07:56:27.158Z,1.27
2022-09-10T07:58:54.980Z,1.30
2022-09-10T08:01:21.918Z,1.48
2022-09-10T08:03:48.939Z,1.27
2022-09-10T08:06:16.480Z,1.60
2022-09-10T08:08:43.570Z,1.25
2022-09-10T08:11:17.384Z,1.40
2022-09-10T08:13:49.598Z,1.30
2022-09-10T08:16:19.320Z,1.48
2022-09-10T08:18:51.341Z,1.20
2022-09-10T08:21:19.342Z,1.70
2022-09-10T08:23:54.211Z,1.50
2022-09-10T08:26:26.051Z,1.50
2022-09-10T08:28:55.817Z,1.40
2022-09-10T08:31:24.861Z,1.30
2022-09-10T08:33:54.046Z,1.25
2022-09-10T08:36:24.517Z,1.50
2022-09-10T08:38:54.401Z,1.10
2022-09-10T08:41:39.134Z,1.50
2022-09-10T08:44:28.025Z,1.33
2022-09-10T08:49:31.611Z,1.08
2022-09-10T08:52:22.687Z,1.10
2022-09-10T08:55:06.839Z,1.33
2022-09-10T08:57:42.659Z,1.10
2022-09-10T09:00:13.438Z,1.38
2022-09-10T09:02:56.656Z,3.10
2022-09-10T09:05:28.453Z,2.20
2022-09-10T09:07:58.668Z,2.42
2022-09-10T09:10:25.551Z,1.42
2022-09-10T09:13:03.691Z,6.55
2022-09-10T09:16:02.309Z,1.60
2022-09-10T09:18:37.446Z,2.88
2022-09-10T09:21:20.702Z,3.60
2022-09-10T09:24:14.335Z,4.10
2022-09-10T09:26:45.279Z,1.40
2022-09-10T09:29:12.227Z,2.03
2022-09-10T09:31:45.737Z,1.42
2022-09-10T09:35:02.661Z,1.52
2022-09-10T09:37:31.515Z,2.58
2022-09-10T09:42:52.999Z,2.00
2022-09-10T09:45:44.057Z,1.45
2022-09-10T09:48:16.918Z,1.38
2022-09-10T09:50:48.168Z,1.38
2022-09-10T09:53:22.867Z,1.20
2022-09-10T09:56:02.063Z,1.80
2022-09-10T09:58:34.376Z,1.70
2022-09-10T10:01:04.292Z,1.70
2022-09-10T10:03:35.516Z,1.52
2022-09-10T10:06:10.759Z,1.38
2022-09-10T10:08:46.733Z,1.50
2022-09-10T10:11:17.783Z,1.90
2022-09-10T10:13:46.794Z,1.23
2022-09-10T10:18:47.233Z,1.60
2022-09-10T10:21:23.649Z,1.50
2022-09-10T10:23:50.562Z,1.50
2022-09-10T10:26:21.090Z,1.13
2022-09-10T10:28:52.449Z,1.30
2022-09-10T10:31:20.146Z,1.40
2022-09-10T10:34:05.118Z,1.20
2022-09-10T10:36:40.175Z,1.08
2022-09-10T10:39:30.408Z,1.20
2022-09-10T10:42:04.471Z,1.33
2022-09-10T10:44:52.975Z,1.15
2022-09-10T10:47:38.915Z,1.50
2022-09-10T10:50:19.575Z,1.20
2022-09-10T10:52:46.752Z,1.30
2022-09-10T10:55:29.896Z,1.30
2022-09-10T10:58:05.771Z,1.40
2022-09-10T11:00:42.312Z,1.10
2022-09-10T11:03:16.048Z,1.17
2022-09-10T11:06:00.866Z,1.30
2022-09-10T11:08:35.053Z,1.30
2022-09-10T11:11:29.726Z,1.38
2022-09-10T11:14:01.919Z,1.20
2022-09-10T11:16:40.429Z,1.80
2022-09-10T11:19:20.276Z,1.70
2022-09-10T11:22:14.147Z,1.85
2022-09-10T11:24:57.485Z,1.40
2022-09-10T11:27:51.145Z,1.60
2022-09-10T11:30:19.305Z,1.33
2022-09-10T11:33:25.564Z,1.50
2022-09-10T11:36:15.218Z,1.67
2022-09-10T11:38:53.136Z,1.35
2022-09-10T11:41:24.316Z,1.20
2022-09-10T11:44:27.525Z,1.63
2022-09-10T11:47:12.517Z,1.42
2022-09-10T11:50:03.343Z,1.00
2022-09-10T11:52:32.060Z,1.27
2022-09-10T11:54:59.440Z,1.15
2022-09-10T11:57:46.073Z,1.25
2022-09-10T12:00:17.182Z,1.65
2022-09-10T12:03:21.827Z,1.23
2022-09-10T12:06:22.499Z,1.30
2022-09-10T12:09:13.808Z,1.20
2022-09-10T12:11:52.264Z,1.20
2022-09-10T12:14:22.106Z,1.73
2022-09-10T12:17:13.525Z,1.20
2022-09-10T12:19:50.149Z,1.20
2022-09-10T12:22:30.500Z,1.40
2022-09-10T12:25:05.604Z,1.23
2022-09-10T12:27:51.481Z,1.23
2022-09-10T12:30:36.385Z,1.20
2022-09-10T12:33:24.936Z,1.33
2022-09-10T12:35:52.990Z,1.17
2022-09-10T12:38:45.623Z,1.23
2022-09-10T12:41:32.707Z,1.17
2022-09-10T12:44:00.931Z,1.10
2022-09-10T12:46:28.948Z,1.37
2022-09-10T12:48:55.801Z,1.08
2022-09-10T12:51:31.087Z,1.40
2022-09-10T12:54:17.192Z,1.25
2022-09-10T12:57:09.127Z,2.20
2022-09-10T12:59:40.844Z,2.50
2022-09-10T13:02:30.146Z,1.40
2022-09-10T13:05:01.591Z,2.53
2022-09-10T13:07:40.451Z,2.08
2022-09-10T13:12:55.376Z,5.15
2022-09-10T13:15:25.895Z,5.03
2022-09-10T13:17:52.676Z,3.47
2022-09-10T13:20:22.651Z,2.50
2022-09-10T13:23:01.669Z,1.25
2022-09-10T13:25:57.723Z,1.45
2022-09-10T13:28:44.761Z,1.20
2022-09-10T13:31:22.836Z,1.10
2022-09-10T13:33:49.767Z,0.90
2022-09-10T13:36:44.224Z,2.22
2022-09-10T13:39:38.318Z,1.40
2022-09-10T13:42:19.358Z,0.98
2022-09-10T13:45:13.057Z,1.00
2022-09-10T13:48:02.563Z,1.10
2022-09-10T13:50:55.416Z,1.23
2022-09-10T13:53:24.889Z,1.35
2022-09-10T13:56:00.596Z,1.25
2022-09-10T13:58:32.719Z,1.10
2022-09-10T14:01:03.385Z,1.10
2022-09-10T14:03:31.804Z,1.20
2022-09-10T14:06:07.745Z,1.63
2022-09-10T14:08:42.335Z,1.15
2022-09-10T14:11:12.366Z,1.17
2022-09-10T14:13:47.970Z,1.23
2022-09-10T14:16:21.115Z,1.52
2022-09-10T14:18:52.683Z,1.23
2022-09-10T14:21:26.969Z,1.00
2022-09-10T14:23:56.134Z,1.42
2022-09-10T14:26:26.530Z,1.20
2022-09-10T14:29:22.458Z,1.00
2022-09-10T14:31:49.324Z,1.35
2022-09-10T14:34:35.011Z,1.33
2022-09-10T14:37:22.476Z,1.90
2022-09-10T14:39:49.383Z,1.40
2022-09-10T14:42:31.790Z,1.50
2022-09-10T14:44:58.804Z,0.90
2022-09-10T14:47:30.485Z,1.38
2022-09-10T14:50:34.360Z,1.00
2022-09-10T14:53:01.335Z,1.00
2022-09-10T14:55:30.772Z,1.10
2022-09-10T14:57:57.881Z,1.08
2022-09-10T15:00:26.052Z,1.33
2022-09-10T15:02:56.139Z,0.95
2022-09-10T15:05:24.757Z,1.20
2022-09-10T15:07:51.644Z,1.52
2022-09-10T15:10:18.521Z,0.90
2022-09-10T15:12:49.910Z,1.00
2022-09-10T15:15:17.789Z,1.02
2022-09-10T15:17:45.414Z,1.02
2022-09-10T15:20:17.002Z,1.10
2022-09-10T15:22:44.679Z,1.23
2022-09-10T15:25:38.378Z,1.20
2022-09-10T15:28:06.928Z,1.30
2022-09-10T15:30:36.841Z,1.30
2022-09-10T15:33:07.547Z,0.90
2022-09-10T15:35:34.602Z,0.90
2022-09-10T15:38:01.904Z,1.10
2022-09-10T15:40:28.803Z,0.80
2022-09-10T15:42:55.656Z,0.98
2022-09-10T15:45:22.531Z,0.80
2022-09-10T15:47:50.317Z,1.08
2022-09-10T15:50:17.857Z,1.00
2022-09-10T15:52:45.109Z,1.20
2022-09-10T15:55:12.480Z,1.23
2022-09-10T15:57:40.461Z,1.10
2022-09-10T16:00:08.263Z,1.13
2022-09-10T16:02:35.253Z,1.48
2022-09-10T16:05:02.239Z,1.70
2022-09-10T16:07:29.576Z,1.17
2022-09-10T16:09:57.704Z,1.65
2022-09-10T16:12:27.611Z,1.47
2022-09-10T16:14:54.685Z,1.40
2022-09-10T16:17:21.599Z,1.70
2022-09-10T16:19:49.673Z,1.58
2022-09-10T16:22:20.426Z,1.50
2022-09-10T16:24:47.739Z,1.58
2022-09-10T16:27:17.641Z,1.70
2022-09-10T16:29:45.268Z,2.17
2022-09-10T16:32:12.889Z,1.77
2022-09-10T16:34:39.818Z,2.60
2022-09-10T16:37:07.095Z,2.92
2022-09-10T16:39:34.265Z,3.00
2022-09-10T16:42:01.387Z,3.13
2022-09-10T16:44:28.851Z,3.08
2022-09-10T16:46:57.791Z,3.45
2022-09-10T16:51:51.574Z,3.20
2022-09-10T16:54:20.111Z,2.65
2022-09-10T16:56:48.859Z,2.30
2022-09-10T16:59:23.889Z,2.63
2022-09-10T17:01:52.178Z,2.20
2022-09-10T17:04:26.012Z,1.80
2022-09-10T17:06:56.216Z,2.00
2022-09-10T17:09:23.159Z,2.08
2022-09-10T17:11:51.204Z,6.00
2022-09-10T17:14:18.165Z,2.28
2022-09-10T17:16:45.111Z,1.83
2022-09-10T17:19:14.770Z,1.50
2022-09-10T17:21:44.447Z,1.30
2022-09-10T17:24:13.279Z,1.65
2022-09-10T17:26:41.346Z,1.77
2022-09-10T17:29:19.070Z,2.38
2022-09-10T17:31:46.683Z,2.35
2022-09-10T17:34:15.400Z,2.70
2022-09-10T17:36:44.822Z,2.65
2022-09-10T17:39:12.529Z,2.97
2022-09-10T17:41:40.065Z,3.13
2022-09-10T17:44:08.064Z,3.50
2022-09-10T17:46:36.243Z,3.67
2022-09-10T17:49:04.382Z,3.63
2022-09-10T17:51:33.138Z,3.28
2022-09-10T17:54:02.517Z,3.00
2022-09-10T17:56:29.996Z,4.30
2022-09-10T17:59:01.967Z,3.40
2022-09-10T18:01:32.472Z,3.90
2022-09-10T18:04:00.200Z,3.85
2022-09-10T18:06:29.154Z,3.88
2022-09-10T18:09:00.786Z,3.47
2022-09-10T18:11:30.454Z,3.45
2022-09-10T18:13:59.440Z,3.30
2022-09-10T18:19:00.105Z,2.97
2022-09-10T18:21:32.362Z,2.90
2022-09-10T18:24:03.540Z,3.13
2022-09-10T18:26:37.241Z,3.08
2022-09-10T18:29:16.118Z,3.10
2022-09-10T18:31:46.072Z,2.95
2022-09-10T18:34:17.505Z,3.08
2022-09-10T18:36:46.649Z,2.50
2022-09-10T18:39:13.799Z,2.50
2022-09-10T18:41:43.653Z,2.42
2022-09-10T18:44:16.426Z,2.65
2022-09-10T18:46:45.249Z,2.78
2022-09-10T18:49:17.819Z,2.47
2022-09-10T18:51:47.700Z,2.67
2022-09-10T18:54:16.076Z,2.47
2022-09-10T18:56:45.053Z,2.20
2022-09-10T19:01:40.837Z,2.13
2022-09-10T19:04:09.603Z,2.38
2022-09-10T19:06:41.049Z,3.00
2022-09-10T19:09:10.986Z,2.85
2022-09-10T19:11:43.481Z,2.25
2022-09-10T19:14:31.041Z,2.47
2022-09-10T19:16:59.470Z,2.15
2022-09-10T19:19:29.165Z,1.95
2022-09-10T19:22:02.839Z,2.22
2022-09-10T19:24:51.117Z,2.17
2022-09-10T19:27:17.170Z,2.85
2022-09-10T19:29:44.404Z,2.53
2022-09-10T19:32:11.983Z,2.47
2022-09-10T19:34:39.069Z,1.85
2022-09-10T19:37:07.212Z,2.50
2022-09-10T19:39:34.174Z,2.13
2022-09-10T19:42:01.082Z,2.00
2022-09-10T19:44:28.095Z,2.10
2022-09-10T19:46:55.395Z,1.98
2022-09-10T19:49:22.363Z,2.63
2022-09-10T19:51:49.336Z,2.45
2022-09-10T19:54:16.497Z,2.00
2022-09-10T19:56:43.853Z,1.90
2022-09-10T19:59:11.215Z,1.92
2022-09-10T20:01:40.944Z,2.22
2022-09-10T20:04:10.478Z,1.60
2022-09-10T20:06:38.003Z,1.75
2022-09-10T20:09:06.986Z,1.80
2022-09-10T20:14:10.825Z,2.28
2022-09-10T20:16:43.070Z,1.73
2022-09-10T20:19:12.066Z,2.10
2022-09-10T20:24:09.304Z,2.00
2022-09-10T20:26:38.376Z,1.88
2022-09-10T20:29:12.571Z,2.40
2022-09-10T20:31:41.225Z,1.90
2022-09-10T20:34:12.029Z,2.47
2022-09-10T20:36:42.395Z,1.75
2022-09-10T20:39:11.359Z,2.33
2022-09-10T20:41:40.029Z,1.70
2022-09-10T20:44:07.621Z,1.98
2022-09-10T20:46:35.016Z,1.98
2022-09-10T20:49:05.114Z,1.83
2022-09-10T20:51:34.430Z,2.30
2022-09-10T20:54:02.360Z,2.70
2022-09-10T20:56:29.290Z,1.85
2022-09-10T20:58:56.601Z,2.38
2022-09-10T21:01:25.556Z,2.20
2022-09-10T21:06:23.984Z,2.72
2022-09-10T21:08:51.472Z,2.28
2022-09-10T21:11:20.879Z,1.75
2022-09-10T21:13:50.413Z,2.45
2022-09-10T21:16:18.970Z,3.10
2022-09-10T21:18:54.865Z,2.00
2022-09-10T21:21:25.770Z,2.42
2022-09-10T21:24:01.202Z,2.40
2022-09-10T21:26:31.728Z,2.70
2022-09-10T21:29:00.968Z,2.00
2022-09-10T21:31:28.817Z,2.40
2022-09-10T21:34:01.910Z,1.85
2022-09-10T21:36:31.426Z,2.50
2022-09-10T21:39:00.450Z,2.40
2022-09-10T21:44:00.475Z,2.60
2022-09-10T21:46:28.020Z,2.35
2022-09-10T21:48:55.532Z,2.40
2022-09-10T21:51:23.062Z,2.25
2022-09-10T21:53:54.993Z,2.50
2022-09-10T21:56:23.395Z,2.20
2022-09-10T21:58:50.856Z,2.20
2022-09-10T22:01:27.073Z,1.85
2022-09-10T22:03:57.112Z,1.90
2022-09-10T22:06:34.853Z,1.73
2022-09-10T22:09:05.224Z,2.35
2022-09-10T22:11:34.883Z,2.00
2022-09-10T22:14:04.574Z,1.85
2022-09-10T22:16:33.508Z,2.10
2022-09-10T22:19:03.310Z,2.30
2022-09-10T22:21:30.595Z,2.08
2022-09-10T22:23:57.598Z,2.08
2022-09-10T22:26:28.252Z,2.28
2022-09-10T22:28:58.250Z,2.20
2022-09-10T22:31:28.390Z,1.80
2022-09-10T22:33:58.001Z,2.22
2022-09-10T22:36:31.679Z,2.28
2022-09-10T22:39:00.038Z,1.67
2022-09-10T22:41:28.245Z,2.00
2022-09-10T22:43:55.285Z,2.13
2022-09-10T22:46:24.166Z,1.90
2022-09-10T22:48:51.310Z,2.25
2022-09-10T22:51:20.982Z,2.28
2022-09-10T22:53:48.250Z,2.13
2022-09-10T22:56:22.078Z,2.00
2022-09-10T22:58:52.646Z,2.30
2022-09-10T23:01:21.677Z,2.42
2022-09-10T23:06:19.068Z,2.33
2022-09-10T23:08:48.543Z,2.17
2022-09-10T23:11:27.430Z,2.28
2022-09-10T23:16:29.827Z,2.60
2022-09-10T23:18:58.631Z,2.40
2022-09-10T23:21:28.710Z,2.83
2022-09-10T23:23:57.934Z,2.38
2022-09-10T23:26:25.922Z,2.40
2022-09-10T23:28:53.103Z,2.15
2022-09-10T23:31:26.277Z,2.35
2022-09-10T23:34:03.118Z,2.45
2022-09-10T23:36:38.755Z,3.00
2022-09-10T23:39:08.054Z,2.20
2022-09-10T23:41:35.460Z,2.25
2022-09-10T23:44:02.739Z,2.83
2022-09-10T23:46:30.574Z,2.70
2022-09-10T23:48:57.661Z,2.90
2022-09-10T23:51:24.675Z,2.17
2022-09-10T23:53:51.509Z,2.22
2022-09-10T23:56:20.629Z,2.53
2022-09-10T23:58:49.592Z,2.78
